createdAt,value
2022-08-06T00:00:07.855Z,75.50
2022-08-06T00:02:31.147Z,76.20
2022-08-06T00:05:01.556Z,76.70
2022-08-06T00:07:44.530Z,75.70
2022-08-06T00:10:14.170Z,73.20
2022-08-06T00:12:42.417Z,77.40
2022-08-06T00:15:14.591Z,78.30
2022-08-06T00:17:43.882Z,68.50
2022-08-06T00:20:25.876Z,68.70
2022-08-06T00:22:57.786Z,66.90
2022-08-06T00:25:25.283Z,66.30
2022-08-06T00:27:53.835Z,66.00
2022-08-06T00:30:22.465Z,65.90
2022-08-06T00:32:53.275Z,64.60
2022-08-06T00:35:23.824Z,63.90
2022-08-06T00:37:59.146Z,66.60
2022-08-06T00:40:31.501Z,65.30
2022-08-06T00:43:02.586Z,67.40
2022-08-06T00:45:38.033Z,69.30
2022-08-06T00:48:20.204Z,69.30
2022-08-06T00:51:00.875Z,70.90
2022-08-06T00:53:33.870Z,60.60
2022-08-06T00:56:08.438Z,65.80
2022-08-06T00:58:39.939Z,68.70
2022-08-06T01:01:17.713Z,69.80
2022-08-06T01:03:51.775Z,69.60
2022-08-06T01:06:57.383Z,70.00
2022-08-06T01:09:11.453Z,70.40
2022-08-06T01:11:39.559Z,70.80
2022-08-06T01:14:10.265Z,71.30
2022-08-06T01:16:58.737Z,71.70
2022-08-06T01:21:21.936Z,71.10
2022-08-06T01:22:44.125Z,71.80
2022-08-06T01:25:21.639Z,73.00
2022-08-06T01:27:59.528Z,72.80
2022-08-06T01:30:36.588Z,72.70
2022-08-06T01:33:17.171Z,71.80
2022-08-06T01:35:56.103Z,70.70
2022-08-06T01:38:36.482Z,72.50
2022-08-06T01:41:08.463Z,73.70
2022-08-06T01:44:05.700Z,73.20
2022-08-06T01:46:27.495Z,74.50
2022-08-06T01:48:57.944Z,74.40
2022-08-06T01:52:15.016Z,73.10
2022-08-06T01:54:16.194Z,73.00
2022-08-06T01:56:57.218Z,71.90
2022-08-06T01:59:34.530Z,74.70
2022-08-06T02:02:08.522Z,76.40
2022-08-06T02:04:41.583Z,76.30
2022-08-06T02:07:14.374Z,74.70
2022-08-06T02:10:03.300Z,74.40
2022-08-06T02:12:33.307Z,74.10
2022-08-06T02:15:22.102Z,75.30
2022-08-06T02:18:03.909Z,75.30
2022-08-06T02:20:42.310Z,73.00
2022-08-06T02:23:19.614Z,74.30
2022-08-06T02:25:51.847Z,74.60
2022-08-06T02:28:25.462Z,74.80
2022-08-06T02:30:56.693Z,75.70
2022-08-06T02:34:01.039Z,74.80
2022-08-06T02:36:31.696Z,75.10
2022-08-06T02:39:47.644Z,75.10
2022-08-06T02:42:28.801Z,77.20
2022-08-06T02:45:07.892Z,77.80
2022-08-06T02:48:32.154Z,76.50
2022-08-06T02:51:29.520Z,76.20
2022-08-06T02:54:07.544Z,75.70
2022-08-06T02:56:42.790Z,75.30
2022-08-06T02:59:17.488Z,74.50
2022-08-06T03:01:55.975Z,73.90
2022-08-06T03:04:27.182Z,73.00
2022-08-06T03:07:26.743Z,76.70
2022-08-06T03:09:57.098Z,78.80
2022-08-06T03:12:29.430Z,78.70
2022-08-06T03:15:05.986Z,76.90
2022-08-06T03:17:39.484Z,76.80
2022-08-06T03:20:16.767Z,76.50
2022-08-06T03:22:48.225Z,75.90
2022-08-06T03:25:17.685Z,76.30
2022-08-06T03:27:49.972Z,77.40
2022-08-06T03:30:31.620Z,78.00
2022-08-06T03:33:29.497Z,77.40
2022-08-06T03:36:01.674Z,77.20
2022-08-06T03:38:38.738Z,76.10
2022-08-06T03:41:08.283Z,77.00
2022-08-06T03:43:46.048Z,77.70
2022-08-06T03:46:32.674Z,78.20
2022-08-06T03:49:03.894Z,78.10
2022-08-06T03:51:52.597Z,78.10
2022-08-06T03:54:37.331Z,77.10
2022-08-06T03:57:17.533Z,76.60
2022-08-06T03:59:59.137Z,77.30
2022-08-06T04:02:49.545Z,78.70
2022-08-06T04:05:21.026Z,79.10
2022-08-06T04:07:56.714Z,79.90
2022-08-06T04:10:35.341Z,80.30
2022-08-06T04:14:02.995Z,79.10
2022-08-06T04:16:02.240Z,78.30
2022-08-06T04:18:41.728Z,78.30
2022-08-06T04:21:21.143Z,78.70
2022-08-06T04:23:59.654Z,78.60
2022-08-06T04:26:30.451Z,77.50
2022-08-06T04:29:01.446Z,78.80
2022-08-06T04:32:13.155Z,78.80
2022-08-06T04:34:27.036Z,78.80
2022-08-06T04:37:01.978Z,77.00
2022-08-06T04:39:37.843Z,76.30
2022-08-06T04:42:19.195Z,76.10
2022-08-06T04:44:56.128Z,74.40
2022-08-06T04:47:42.031Z,73.60
2022-08-06T04:50:17.808Z,75.30
2022-08-06T04:52:50.892Z,73.30
2022-08-06T04:55:25.463Z,74.70
2022-08-06T04:58:08.422Z,76.10
2022-08-06T05:01:03.024Z,75.20
2022-08-06T05:04:07.569Z,75.10
2022-08-06T05:06:36.444Z,74.40
2022-08-06T05:09:20.521Z,74.90
2022-08-06T05:12:07.237Z,74.30
2022-08-06T05:14:46.610Z,73.00
2022-08-06T05:17:18.302Z,73.70
2022-08-06T05:19:57.833Z,74.10
2022-08-06T05:22:52.011Z,74.10
2022-08-06T05:25:22.129Z,73.30
2022-08-06T05:28:10.329Z,73.10
2022-08-06T05:30:52.894Z,73.00
2022-08-06T05:33:39.113Z,72.90
2022-08-06T05:36:19.780Z,72.70
2022-08-06T05:38:59.529Z,70.60
2022-08-06T05:41:30.599Z,69.30
2022-08-06T05:44:03.054Z,70.50
2022-08-06T05:46:38.575Z,70.80
2022-08-06T05:49:12.172Z,71.80
2022-08-06T05:52:05.761Z,71.20
2022-08-06T05:55:11.570Z,71.20
2022-08-06T05:58:01.637Z,69.90
2022-08-06T06:00:43.269Z,70.30
2022-08-06T06:03:24.361Z,69.90
2022-08-06T06:06:05.982Z,69.10
2022-08-06T06:08:58.982Z,67.10
2022-08-06T06:11:54.974Z,68.10
2022-08-06T06:14:45.262Z,67.20
2022-08-06T06:17:12.709Z,67.80
2022-08-06T06:20:10.548Z,67.10
2022-08-06T06:23:07.981Z,66.00
2022-08-06T06:26:00.949Z,65.40
2022-08-06T06:28:47.976Z,64.90
2022-08-06T06:32:06.142Z,65.10
2022-08-06T06:34:40.901Z,65.50
2022-08-06T06:37:40.140Z,65.10
2022-08-06T06:40:34.734Z,63.70
2022-08-06T06:43:16.453Z,63.00
2022-08-06T06:46:05.332Z,62.40
2022-08-06T06:48:58.771Z,61.90
2022-08-06T06:51:57.609Z,61.90
2022-08-06T06:54:38.233Z,61.80
2022-08-06T06:57:10.878Z,62.20
2022-08-06T07:00:00.903Z,61.30
2022-08-06T07:02:34.398Z,61.50
2022-08-06T07:05:07.752Z,61.90
2022-08-06T07:07:46.041Z,60.90
2022-08-06T07:10:20.136Z,61.00
2022-08-06T07:12:50.850Z,61.70
2022-08-06T07:15:22.624Z,62.60
2022-08-06T07:17:53.845Z,61.40
2022-08-06T07:20:30.789Z,61.60
2022-08-06T07:24:08.595Z,62.30
2022-08-06T07:25:55.800Z,63.60
2022-08-06T07:28:30.364Z,63.20
2022-08-06T07:31:04.622Z,62.60
2022-08-06T07:33:42.694Z,62.00
2022-08-06T07:36:32.030Z,63.20
2022-08-06T07:39:14.373Z,62.30
2022-08-06T07:42:07.809Z,60.50
2022-08-06T07:44:54.998Z,61.50
2022-08-06T07:47:46.228Z,61.70
2022-08-06T07:50:23.568Z,60.80
2022-08-06T07:52:56.265Z,59.40
2022-08-06T07:55:40.697Z,59.10
2022-08-06T07:58:18.457Z,58.30
2022-08-06T08:00:55.872Z,58.60
2022-08-06T08:03:58.017Z,58.40
2022-08-06T08:06:28.220Z,58.10
2022-08-06T08:09:06.678Z,57.20
2022-08-06T08:12:17.144Z,57.30
2022-08-06T08:14:32.709Z,57.50
2022-08-06T08:17:01.954Z,57.50
2022-08-06T08:19:34.566Z,57.20
2022-08-06T08:22:15.819Z,57.00
2022-08-06T08:24:54.039Z,56.70
2022-08-06T08:27:23.744Z,54.80
2022-08-06T08:29:56.660Z,55.30
2022-08-06T08:32:26.509Z,54.50
2022-08-06T08:34:54.596Z,55.00
2022-08-06T08:37:24.999Z,53.90
2022-08-06T08:39:54.888Z,54.30
2022-08-06T08:42:40.932Z,54.00
2022-08-06T08:45:13.207Z,54.50
2022-08-06T08:47:53.555Z,53.70
2022-08-06T08:50:32.540Z,52.80
2022-08-06T08:53:10.509Z,51.80
2022-08-06T08:57:08.621Z,52.10
2022-08-06T08:59:01.991Z,52.30
2022-08-06T09:01:51.838Z,53.10
2022-08-06T09:04:06.394Z,52.20
2022-08-06T09:06:37.149Z,51.10
2022-08-06T09:09:06.880Z,51.60
2022-08-06T09:12:05.819Z,52.00
2022-08-06T09:14:33.625Z,51.20
2022-08-06T09:17:04.159Z,51.40
2022-08-06T09:19:37.389Z,51.10
2022-08-06T09:22:06.720Z,51.60
2022-08-06T09:24:39.502Z,51.20
2022-08-06T09:27:47.094Z,51.20
2022-08-06T09:30:04.653Z,50.60
2022-08-06T09:32:56.893Z,51.50
2022-08-06T09:35:44.642Z,48.90
2022-08-06T09:38:17.764Z,50.20
2022-08-06T09:41:08.927Z,49.80
2022-08-06T09:44:04.192Z,49.80
2022-08-06T09:46:48.551Z,49.50
2022-08-06T09:49:45.339Z,48.50
2022-08-06T09:52:20.088Z,49.40
2022-08-06T09:54:52.807Z,49.00
2022-08-06T09:57:41.234Z,48.20
2022-08-06T10:00:14.605Z,47.70
2022-08-06T10:02:50.872Z,47.90
2022-08-06T10:05:20.513Z,48.00
2022-08-06T10:08:02.191Z,47.40
2022-08-06T10:10:50.259Z,47.40
2022-08-06T10:13:25.984Z,48.90
2022-08-06T10:16:04.270Z,47.70
2022-08-06T10:18:56.165Z,47.80
2022-08-06T10:21:27.394Z,47.80
2022-08-06T10:24:06.263Z,48.90
2022-08-06T10:26:37.293Z,49.30
2022-08-06T10:29:08.959Z,48.00
2022-08-06T10:31:37.905Z,47.50
2022-08-06T10:34:16.963Z,47.00
2022-08-06T10:36:59.226Z,47.00
2022-08-06T10:40:07.556Z,47.60
2022-08-06T10:42:25.117Z,47.60
2022-08-06T10:44:53.960Z,46.90
2022-08-06T10:49:00.103Z,45.60
2022-08-06T10:50:24.015Z,46.30
2022-08-06T10:52:57.191Z,45.40
2022-08-06T10:55:24.719Z,45.00
2022-08-06T10:58:05.991Z,44.90
2022-08-06T11:00:37.593Z,45.60
2022-08-06T11:03:13.549Z,45.10
2022-08-06T11:05:53.031Z,45.20
2022-08-06T11:08:45.297Z,45.70
2022-08-06T11:11:39.595Z,45.00
2022-08-06T11:14:15.104Z,44.00
2022-08-06T11:16:59.201Z,43.30
2022-08-06T11:19:58.874Z,43.50
2022-08-06T11:22:52.193Z,47.60
2022-08-06T11:25:40.928Z,47.20
2022-08-06T11:28:11.329Z,50.30
2022-08-06T11:30:51.289Z,49.40
2022-08-06T11:33:35.517Z,50.70
2022-08-06T11:36:25.242Z,50.40
2022-08-06T11:38:59.363Z,50.60
2022-08-06T11:41:55.044Z,52.00
2022-08-06T11:44:29.319Z,52.50
2022-08-06T11:47:22.860Z,50.40
2022-08-06T11:50:27.129Z,50.70
2022-08-06T11:52:55.149Z,52.00
2022-08-06T11:55:27.939Z,50.30
2022-08-06T11:58:21.467Z,51.40
2022-08-06T12:01:03.901Z,51.60
2022-08-06T12:03:52.208Z,50.70
2022-08-06T12:06:26.653Z,48.50
2022-08-06T12:09:23.928Z,49.40
2022-08-06T12:12:26.936Z,50.70
2022-08-06T12:15:02.123Z,51.70
2022-08-06T12:17:45.595Z,51.00
2022-08-06T12:20:46.327Z,51.90
2022-08-06T12:23:17.518Z,52.40
2022-08-06T12:25:48.354Z,52.10
2022-08-06T12:28:19.184Z,50.70
2022-08-06T12:30:51.613Z,51.00
2022-08-06T12:33:31.126Z,52.30
2022-08-06T12:36:03.506Z,52.60
2022-08-06T12:38:32.962Z,52.60
2022-08-06T12:41:09.554Z,52.40
2022-08-06T12:43:57.100Z,52.10
2022-08-06T12:46:29.368Z,51.60
2022-08-06T12:49:07.669Z,50.80
2022-08-06T12:51:43.517Z,51.10
2022-08-06T12:54:26.299Z,51.10
2022-08-06T12:56:55.336Z,51.00
2022-08-06T12:59:25.721Z,51.50
2022-08-06T13:02:10.581Z,52.00
2022-08-06T13:04:48.296Z,52.20
2022-08-06T13:07:20.486Z,52.20
2022-08-06T13:10:32.925Z,52.60
2022-08-06T13:14:03.367Z,53.20
2022-08-06T13:15:42.129Z,53.50
2022-08-06T13:18:41.214Z,54.00
2022-08-06T13:21:23.646Z,54.20
2022-08-06T13:24:01.373Z,54.40
2022-08-06T13:26:33.432Z,54.00
2022-08-06T13:30:28.880Z,54.30
2022-08-06T13:32:19.928Z,54.30
2022-08-06T13:34:59.931Z,54.10
2022-08-06T13:37:55.836Z,54.20
2022-08-06T13:40:47.530Z,54.30
2022-08-06T13:43:42.735Z,53.90
2022-08-06T13:46:20.497Z,54.10
2022-08-06T13:49:01.438Z,54.00
2022-08-06T13:51:34.709Z,54.20
2022-08-06T13:54:16.251Z,53.10
2022-08-06T13:56:52.047Z,55.10
2022-08-06T13:59:42.230Z,55.70
2022-08-06T14:02:13.124Z,57.60
2022-08-06T14:04:41.096Z,54.00
2022-08-06T14:07:21.051Z,56.40
2022-08-06T14:10:08.290Z,55.60
2022-08-06T14:12:39.259Z,53.40
2022-08-06T14:15:13.108Z,52.60
2022-08-06T14:17:45.513Z,52.50
2022-08-06T14:20:23.786Z,51.10
2022-08-06T14:22:56.366Z,51.50
2022-08-06T14:25:28.603Z,51.00
2022-08-06T14:28:18.159Z,50.90
2022-08-06T14:30:51.337Z,50.80
2022-08-06T14:33:26.282Z,51.10
2022-08-06T14:36:05.862Z,50.20
2022-08-06T14:38:44.588Z,50.90
2022-08-06T14:41:51.308Z,51.20
2022-08-06T14:44:40.524Z,50.30
2022-08-06T14:47:10.377Z,50.40
2022-08-06T14:49:51.503Z,50.20
2022-08-06T14:52:24.600Z,50.70
2022-08-06T14:55:06.571Z,51.40
2022-08-06T14:58:03.716Z,51.80
2022-08-06T15:00:34.987Z,52.70
2022-08-06T15:03:07.571Z,53.30
2022-08-06T15:06:00.528Z,54.20
2022-08-06T15:08:30.621Z,54.30
2022-08-06T15:10:58.344Z,54.70
2022-08-06T15:13:36.526Z,55.00
2022-08-06T15:16:22.302Z,55.00
2022-08-06T15:19:15.541Z,55.00
2022-08-06T15:21:50.870Z,55.70
2022-08-06T15:24:19.408Z,56.40
2022-08-06T15:26:49.410Z,56.40
2022-08-06T15:29:17.811Z,56.10
2022-08-06T15:31:46.431Z,57.20
2022-08-06T15:34:20.271Z,56.60
2022-08-06T15:37:01.351Z,57.70
2022-08-06T15:39:51.032Z,58.50
2022-08-06T15:42:23.815Z,60.00
2022-08-06T15:44:53.538Z,61.40
2022-08-06T15:47:32.382Z,62.00
2022-08-06T15:50:09.910Z,64.50
2022-08-06T15:52:43.860Z,65.00
2022-08-06T15:55:15.749Z,63.30
2022-08-06T15:58:06.761Z,65.10
2022-08-06T16:00:36.905Z,65.50
2022-08-06T16:03:09.204Z,65.90
2022-08-06T16:06:10.123Z,63.50
2022-08-06T16:08:34.263Z,63.90
2022-08-06T16:11:08.539Z,62.00
2022-08-06T16:13:39.785Z,65.30
2022-08-06T16:16:08.659Z,65.90
2022-08-06T16:18:48.547Z,66.50
2022-08-06T16:21:22.919Z,67.00
2022-08-06T16:24:03.601Z,66.20
2022-08-06T16:26:42.796Z,64.50
2022-08-06T16:29:20.019Z,68.50
2022-08-06T16:31:54.134Z,66.40
2022-08-06T16:34:30.372Z,63.80
2022-08-06T16:37:00.913Z,64.00
2022-08-06T16:39:35.000Z,64.20
2022-08-06T16:42:06.864Z,64.30
2022-08-06T16:44:36.485Z,65.80
2022-08-06T16:47:18.489Z,65.60
2022-08-06T16:50:18.236Z,64.30
2022-08-06T16:52:44.102Z,63.70
2022-08-06T16:55:24.523Z,63.90
2022-08-06T16:57:57.646Z,63.50
2022-08-06T17:01:00.154Z,63.80
2022-08-06T17:03:20.819Z,64.20
2022-08-06T17:06:05.290Z,63.60
2022-08-06T17:08:34.762Z,64.80
2022-08-06T17:11:02.828Z,65.40
2022-08-06T17:13:38.291Z,66.30
2022-08-06T17:16:12.136Z,66.40
2022-08-06T17:18:42.797Z,66.70
2022-08-06T17:21:17.086Z,66.40
2022-08-06T17:23:51.758Z,65.50
2022-08-06T17:26:34.796Z,65.70
2022-08-06T17:29:03.920Z,65.50
2022-08-06T17:31:58.217Z,65.40
2022-08-06T17:34:20.499Z,65.10
2022-08-06T17:36:54.110Z,66.40
2022-08-06T17:39:26.017Z,65.60
2022-08-06T17:42:11.727Z,65.60
2022-08-06T17:44:39.932Z,65.70
2022-08-06T17:47:10.405Z,64.40
2022-08-06T17:49:43.529Z,64.60
2022-08-06T17:52:14.123Z,65.60
2022-08-06T17:54:46.698Z,66.80
2022-08-06T17:58:32.486Z,67.00
2022-08-06T18:00:11.607Z,65.90
2022-08-06T18:03:00.243Z,65.70
2022-08-06T18:05:36.304Z,64.80
2022-08-06T18:08:21.849Z,65.10
2022-08-06T18:10:52.770Z,65.40
2022-08-06T18:13:21.420Z,66.30
2022-08-06T18:16:08.824Z,66.70
2022-08-06T18:18:37.226Z,68.60
2022-08-06T18:21:24.962Z,69.50
2022-08-06T18:23:56.808Z,70.90
2022-08-06T18:26:32.677Z,70.00
2022-08-06T18:29:05.989Z,69.60
2022-08-06T18:31:58.866Z,69.50
2022-08-06T18:34:29.448Z,69.00
2022-08-06T18:37:20.145Z,68.20
2022-08-06T18:40:19.292Z,68.70
2022-08-06T18:42:36.987Z,69.20
2022-08-06T18:45:10.657Z,67.50
2022-08-06T18:47:42.724Z,66.10
2022-08-06T18:50:10.504Z,68.00
2022-08-06T18:52:39.525Z,68.80
2022-08-06T18:55:17.878Z,67.20
2022-08-06T18:58:04.786Z,70.20
2022-08-06T19:00:42.454Z,70.10
2022-08-06T19:03:24.564Z,69.30
2022-08-06T19:06:05.406Z,69.20
2022-08-06T19:08:33.940Z,69.30
2022-08-06T19:11:07.279Z,69.00
2022-08-06T19:13:57.829Z,68.40
2022-08-06T19:16:25.809Z,67.50
2022-08-06T19:18:57.514Z,67.90
2022-08-06T19:21:26.878Z,68.30
2022-08-06T19:24:03.519Z,69.80
2022-08-06T19:26:34.642Z,70.20
2022-08-06T19:29:02.497Z,69.80
2022-08-06T19:31:41.939Z,71.60
2022-08-06T19:34:14.828Z,72.20
2022-08-06T19:36:49.648Z,71.80
2022-08-06T19:39:53.748Z,71.20
2022-08-06T19:42:31.623Z,70.70
2022-08-06T19:45:04.153Z,70.70
2022-08-06T19:47:47.669Z,70.00
2022-08-06T19:50:19.414Z,69.60
2022-08-06T19:52:48.919Z,70.10
2022-08-06T19:56:06.787Z,70.60
2022-08-06T19:58:26.310Z,69.90
2022-08-06T20:01:07.473Z,69.70
2022-08-06T20:03:52.408Z,68.70
2022-08-06T20:06:30.317Z,70.50
2022-08-06T20:09:29.325Z,71.10
2022-08-06T20:12:02.413Z,72.10
2022-08-06T20:14:33.522Z,73.20
2022-08-06T20:17:04.499Z,73.50
2022-08-06T20:20:06.558Z,74.20
2022-08-06T20:22:21.187Z,74.80
2022-08-06T20:24:49.209Z,73.40
2022-08-06T20:27:37.789Z,72.90
2022-08-06T20:30:09.648Z,71.60
2022-08-06T20:32:38.794Z,70.80
2022-08-06T20:35:11.290Z,70.60
2022-08-06T20:37:44.990Z,72.60
2022-08-06T20:40:37.496Z,74.50
2022-08-06T20:44:04.764Z,74.80
2022-08-06T20:46:01.645Z,73.80
2022-08-06T20:48:30.554Z,73.00
2022-08-06T20:50:57.993Z,73.80
2022-08-06T20:53:32.281Z,73.30
2022-08-06T20:56:03.105Z,72.20
2022-08-06T20:58:32.500Z,72.90
2022-08-06T21:01:00.798Z,71.50
2022-08-06T21:05:16.366Z,73.00
2022-08-06T21:06:22.951Z,75.40
2022-08-06T21:09:06.525Z,77.20
2022-08-06T21:11:36.030Z,77.70
2022-08-06T21:14:04.947Z,76.80
2022-08-06T21:16:35.356Z,76.90
2022-08-06T21:19:07.109Z,76.50
2022-08-06T21:21:37.023Z,75.20
2022-08-06T21:24:05.285Z,74.80
2022-08-06T21:26:34.489Z,73.70
2022-08-06T21:30:08.420Z,73.70
2022-08-06T21:31:58.500Z,73.60
2022-08-06T21:34:35.417Z,73.20
2022-08-06T21:37:20.859Z,72.20
2022-08-06T21:39:57.989Z,72.10
2022-08-06T21:42:25.803Z,72.50
2022-08-06T21:44:53.601Z,72.70
2022-08-06T21:47:36.419Z,72.10
2022-08-06T21:50:25.427Z,73.10
2022-08-06T21:52:55.130Z,73.50
2022-08-06T21:56:39.071Z,72.60
2022-08-06T21:58:10.730Z,72.60
2022-08-06T22:00:44.619Z,73.20
2022-08-06T22:04:36.517Z,73.20
2022-08-06T22:06:22.183Z,73.60
2022-08-06T22:08:56.071Z,73.30
2022-08-06T22:12:39.757Z,73.60
2022-08-06T22:14:17.652Z,74.10
2022-08-06T22:16:58.024Z,74.60
2022-08-06T22:19:33.645Z,74.50
2022-08-06T22:22:07.792Z,74.70
2022-08-06T22:24:37.324Z,74.40
2022-08-06T22:27:11.262Z,74.30
2022-08-06T22:30:04.280Z,74.40
2022-08-06T22:32:36.165Z,73.60
2022-08-06T22:35:09.208Z,73.40
2022-08-06T22:38:16.671Z,72.80
2022-08-06T22:40:29.560Z,73.10
2022-08-06T22:42:58.840Z,73.40
2022-08-06T22:46:00.594Z,74.10
2022-08-06T22:48:17.679Z,75.80
2022-08-06T22:51:18.838Z,76.10
2022-08-06T22:54:25.894Z,75.80
2022-08-06T22:57:04.553Z,75.50
2022-08-06T23:00:11.615Z,74.50
2022-08-06T23:02:23.235Z,74.70
2022-08-06T23:04:52.836Z,74.10
2022-08-06T23:07:25.667Z,73.30
2022-08-06T23:09:58.922Z,74.30
2022-08-06T23:12:36.530Z,74.90
2022-08-06T23:15:30.543Z,75.00
2022-08-06T23:18:00.064Z,75.30
2022-08-06T23:20:32.874Z,75.00
2022-08-06T23:23:04.256Z,75.20
2022-08-06T23:26:01.980Z,75.10
2022-08-06T23:28:23.075Z,75.90
2022-08-06T23:30:50.790Z,75.60
2022-08-06T23:33:18.643Z,76.70
2022-08-06T23:35:46.074Z,78.20
2022-08-06T23:38:31.016Z,78.40
2022-08-06T23:41:00.209Z,77.80
2022-08-06T23:43:34.489Z,77.50
2022-08-06T23:46:04.369Z,77.50
2022-08-06T23:48:32.987Z,76.40
2022-08-06T23:51:05.022Z,76.70
2022-08-06T23:54:08.911Z,77.60
2022-08-06T23:56:20.527Z,78.20
2022-08-06T23:58:54.370Z,78.60
